sensor_id;sensor_type;location;lat;lon;timestamp;pressure;altitude;pressure_sealevel;temperature;humidity
61880;BME280;47817;52.798;27.544;2023-05-14T00:02:04;1030.4;;;17.3;39.7
61880;BME280;47817;52.798;27.544;2023-05-14T00:06:50;1030.4;;;17.1;40.8
61880;BME280;47817;52.798;27.544;2023-05-14T00:11:20;1030.4;;;16.9;41.5
61880;BME280;47817;52.798;27.544;2023-05-14T00:16:20;1030.4;;;16.8;41.5
61880;BME280;47817;52.798;27.544;2023-05-14T00:22:06;1030.4;;;16.8;41.1
61880;BME280;47817;52.798;27.544;2023-05-14T00:26:20;1030.4;;;16.8;41.4
61880;BME280;47817;52.798;27.544;2023-05-14T00:31:44;1030.4;;;16.8;41.2
61880;BME280;47817;52.798;27.544;2023-05-14T00:37:06;1030.4;;;16.8;41.2
61880;BME280;47817;52.798;27.544;2023-05-14T00:41:40;1030.4;;;16.7;41.8
61880;BME280;47817;52.798;27.544;2023-05-14T00:47:04;1030.4;;;16.7;42.2
61880;BME280;47817;52.798;27.544;2023-05-14T00:51:52;1030.5;;;16.6;42.6
61880;BME280;47817;52.798;27.544;2023-05-14T00:56:30;1030.6;;;16.5;43
61880;BME280;47817;52.798;27.544;2023-05-14T01:02:06;1030.6;;;16.5;43.5
61880;BME280;47817;52.798;27.544;2023-05-14T01:06:37;1030.7;;;16.5;44
61880;BME280;47817;52.798;27.544;2023-05-14T01:12:07;1030.7;;;16.5;43.8
61880;BME280;47817;52.798;27.544;2023-05-14T01:16:48;1030.7;;;16.5;43.5
61880;BME280;47817;52.798;27.544;2023-05-14T01:21:50;1030.7;;;16.5;43.6
61880;BME280;47817;52.798;27.544;2023-05-14T01:26:44;1030.7;;;16.4;44.4
61880;BME280;47817;52.798;27.544;2023-05-14T01:31:56;1030.7;;;16.2;44.7
61880;BME280;47817;52.798;27.544;2023-05-14T01:36:36;1030.7;;;16.1;44.5
61880;BME280;47817;52.798;27.544;2023-05-14T01:41:52;1030.8;;;15.8;44.4
61880;BME280;47817;52.798;27.544;2023-05-14T01:46:42;1030.7;;;15.5;44.8
61880;BME280;47817;52.798;27.544;2023-05-14T01:51:20;1030.7;;;15.4;45
61880;BME280;47817;52.798;27.544;2023-05-14T01:57:06;1030.7;;;15.2;45.3
61880;BME280;47817;52.798;27.544;2023-05-14T02:01:36;1030.6;;;15.1;45.4
61880;BME280;47817;52.798;27.544;2023-05-14T02:06:20;1030.6;;;15;46.2
61880;BME280;47817;52.798;27.544;2023-05-14T02:12:06;1030.6;;;14.9;46.8
61880;BME280;47817;52.798;27.544;2023-05-14T02:16:36;1030.7;;;14.9;47.2
61880;BME280;47817;52.798;27.544;2023-05-14T02:21:20;1030.7;;;14.9;47.3
61880;BME280;47817;52.798;27.544;2023-05-14T02:27:00;1030.7;;;14.9;46.5
61880;BME280;47817;52.798;27.544;2023-05-14T02:32:08;1030.6;;;14.9;46.8
61880;BME280;47817;52.798;27.544;2023-05-14T02:36:32;1030.6;;;14.9;46.9
61880;BME280;47817;52.798;27.544;2023-05-14T02:41:32;1030.6;;;14.9;47.6
61880;BME280;47817;52.798;27.544;2023-05-14T02:47:08;1030.6;;;14.9;48.2
61880;BME280;47817;52.798;27.544;2023-05-14T02:52:06;1030.6;;;15;48.6
61880;BME280;47817;52.798;27.544;2023-05-14T02:56:44;1030.6;;;15;49.2
61880;BME280;47817;52.798;27.544;2023-05-14T03:01:38;1030.7;;;15;49.4
61880;BME280;47817;52.798;27.544;2023-05-14T03:07:08;1030.8;;;15.1;49.1
61880;BME280;47817;52.798;27.544;2023-05-14T03:11:52;1030.8;;;15.3;48.7
61880;BME280;47817;52.798;27.544;2023-05-14T03:16:26;1030.7;;;15.4;48.1
61880;BME280;47817;52.798;27.544;2023-05-14T03:21:30;1030.7;;;15.5;47.8
61880;BME280;47817;52.798;27.544;2023-05-14T03:27:00;1030.7;;;15.6;48.3
61880;BME280;47817;52.798;27.544;2023-05-14T03:31:32;1030.7;;;15.7;48.4
61880;BME280;47817;52.798;27.544;2023-05-14T03:36:20;1030.7;;;15.9;48.2
61880;BME280;47817;52.798;27.544;2023-05-14T03:42:08;1030.7;;;16.1;48
61880;BME280;47817;52.798;27.544;2023-05-14T03:46:20;1030.7;;;16.3;47.7
61880;BME280;47817;52.798;27.544;2023-05-14T03:52:08;1030.7;;;16.5;47.3
61880;BME280;47817;52.798;27.544;2023-05-14T03:56:54;1030.7;;;16.6;46.8
61880;BME280;47817;52.798;27.544;2023-05-14T04:01:20;1030.7;;;16.8;46.4
61880;BME280;47817;52.798;27.544;2023-05-14T04:06:50;1030.7;;;16.9;46.1
61880;BME280;47817;52.798;27.544;2023-05-14T04:11:32;1030.7;;;17.1;45.8
61880;BME280;47817;52.798;27.544;2023-05-14T04:16:20;1030.8;;;17.3;45.6
61880;BME280;47817;52.798;27.544;2023-05-14T04:22:00;1030.8;;;17.5;45.2
61880;BME280;47817;52.798;27.544;2023-05-14T04:27:08;1030.8;;;17.7;44.4
61880;BME280;47817;52.798;27.544;2023-05-14T04:31:44;1030.8;;;17.9;43.9
61880;BME280;47817;52.798;27.544;2023-05-14T04:37:08;1030.8;;;18.1;43.6
61880;BME280;47817;52.798;27.544;2023-05-14T04:42:10;1030.8;;;18.3;43.2
61880;BME280;47817;52.798;27.544;2023-05-14T04:46:56;1030.8;;;18.4;42.9
61880;BME280;47817;52.798;27.544;2023-05-14T04:51:44;1030.8;;;18.7;42.5
61880;BME280;47817;52.798;27.544;2023-05-14T04:56:20;1030.7;;;18.9;42
61880;BME280;47817;52.798;27.544;2023-05-14T05:02:00;1030.7;;;19.2;41.3
61880;BME280;47817;52.798;27.544;2023-05-14T05:06:54;1030.7;;;19.4;41.1
61880;BME280;47817;52.798;27.544;2023-05-14T05:11:32;1030.7;;;19.6;40.6
61880;BME280;47817;52.798;27.544;2023-05-14T05:17:10;1030.6;;;19.8;40.4
61880;BME280;47817;52.798;27.544;2023-05-14T05:21:30;1030.6;;;20;40.1
61880;BME280;47817;52.798;27.544;2023-05-14T05:26:32;1030.5;;;20.2;39.7
61880;BME280;47817;52.798;27.544;2023-05-14T05:32:00;1030.5;;;20.4;38.5
61880;BME280;47817;52.798;27.544;2023-05-14T05:37:10;1030.6;;;20.6;37.7
61880;BME280;47817;52.798;27.544;2023-05-14T05:41:20;1030.5;;;20.9;37.5
61880;BME280;47817;52.798;27.544;2023-05-14T05:46:44;1030.5;;;21.1;37.4
61880;BME280;47817;52.798;27.544;2023-05-14T05:52:10;1030.6;;;21.3;37.5
61880;BME280;47817;52.798;27.544;2023-05-14T05:56:48;1030.6;;;21.4;37.3
61880;BME280;47817;52.798;27.544;2023-05-14T06:01:20;1030.6;;;21.4;37.3
61880;BME280;47817;52.798;27.544;2023-05-14T06:06:20;1030.6;;;21.5;37.5
61880;BME280;47817;52.798;27.544;2023-05-14T06:12:08;1030.6;;;21.6;37.7
61880;BME280;47817;52.798;27.544;2023-05-14T06:16:54;1030.7;;;21.7;38
61880;BME280;47817;52.798;27.544;2023-05-14T06:21:32;1030.6;;;21.7;38.3
61880;BME280;47817;52.798;27.544;2023-05-14T06:26:34;1030.6;;;21.6;38.8
61880;BME280;47817;52.798;27.544;2023-05-14T06:32:00;1030.6;;;21.8;38.9
61880;BME280;47817;52.798;27.544;2023-05-14T06:36:32;1030.6;;;22;38.4
61880;BME280;47817;52.798;27.544;2023-05-14T06:41:20;1030.6;;;22.2;38
61880;BME280;47817;52.798;27.544;2023-05-14T06:47:10;1030.6;;;22.3;37.7
61880;BME280;47817;52.798;27.544;2023-05-14T06:51:32;1030.5;;;22.5;37.5
61880;BME280;47817;52.798;27.544;2023-05-14T06:56:56;1030.5;;;22.7;37.3
61880;BME280;47817;52.798;27.544;2023-05-14T07:01:56;1030.5;;;22.9;36.6
61880;BME280;47817;52.798;27.544;2023-05-14T07:06:30;1030.5;;;23.1;36.1
61880;BME280;47817;52.798;27.544;2023-05-14T07:11:54;1030.5;;;23.3;35.4
61880;BME280;47817;52.798;27.544;2023-05-14T07:16:20;1030.5;;;23.6;34.6
61880;BME280;47817;52.798;27.544;2023-05-14T07:21:32;1030.5;;;23.8;34.3
61880;BME280;47817;52.798;27.544;2023-05-14T07:26:58;1030.5;;;23.7;33.7
61880;BME280;47817;52.798;27.544;2023-05-14T07:32:08;1030.5;;;23.7;33.4
61880;BME280;47817;52.798;27.544;2023-05-14T07:36:44;1030.5;;;23.8;32.6
61880;BME280;47817;52.798;27.544;2023-05-14T07:42:08;1030.4;;;24;32.3
61880;BME280;47817;52.798;27.544;2023-05-14T07:47:08;1030.4;;;24.1;31.9
61880;BME280;47817;52.798;27.544;2023-05-14T07:51:54;1030.4;;;24.3;31.5
61880;BME280;47817;52.798;27.544;2023-05-14T07:56:32;1030.3;;;24.5;31.1
61880;BME280;47817;52.798;27.544;2023-05-14T08:01:20;1030.3;;;24.8;30.6
61880;BME280;47817;52.798;27.544;2023-05-14T08:06:56;1030.2;;;25.1;30
61880;BME280;47817;52.798;27.544;2023-05-14T08:11:22;1030.2;;;25.2;29.5
61880;BME280;47817;52.798;27.544;2023-05-14T08:16:30;1030.2;;;25.5;29.3
61880;BME280;47817;52.798;27.544;2023-05-14T08:22:08;1030.2;;;25.6;28.9
61880;BME280;47817;52.798;27.544;2023-05-14T08:27:08;1030.1;;;25.7;28.9
61880;BME280;47817;52.798;27.544;2023-05-14T08:31:20;1030.1;;;25.9;28.1
61880;BME280;47817;52.798;27.544;2023-05-14T08:36:20;1030.1;;;26.2;27.7
61880;BME280;47817;52.798;27.544;2023-05-14T08:41:42;1030.1;;;26.2;27.3
61880;BME280;47817;52.798;27.544;2023-05-14T08:46:21;1030.1;;;26.7;26.9
61880;BME280;47817;52.798;27.544;2023-05-14T08:51:42;1030;;;26.9;26.9
61880;BME280;47817;52.798;27.544;2023-05-14T08:56:50;1030;;;27.1;26.5
61880;BME280;47817;52.798;27.544;2023-05-14T09:01:20;1029.9;;;27.4;26.1
61880;BME280;47817;52.798;27.544;2023-05-14T09:07:08;1029.8;;;27.5;25.1
61880;BME280;47817;52.798;27.544;2023-05-14T09:11:28;1029.8;;;27.3;24.6
61880;BME280;47817;52.798;27.544;2023-05-14T09:17:08;1029.8;;;27.4;24
61880;BME280;47817;52.798;27.544;2023-05-14T09:21:54;1029.8;;;27.7;23.4
61880;BME280;47817;52.798;27.544;2023-05-14T09:26:22;1029.7;;;27.8;23
61880;BME280;47817;52.798;27.544;2023-05-14T09:31:44;1029.7;;;28.1;22.5
61880;BME280;47817;52.798;27.544;2023-05-14T09:36:59;1029.6;;;28.3;22.7
61880;BME280;47817;52.798;27.544;2023-05-14T09:41:20;1029.6;;;28.2;22.6
61880;BME280;47817;52.798;27.544;2023-05-14T09:46:42;1029.5;;;28.3;22.4
61880;BME280;47817;52.798;27.544;2023-05-14T09:52:08;1029.5;;;28.6;22.5
61880;BME280;47817;52.798;27.544;2023-05-14T09:56:44;1029.4;;;28.7;22.5
61880;BME280;47817;52.798;27.544;2023-05-14T10:02:11;1029.4;;;28.6;22.5
61880;BME280;47817;52.798;27.544;2023-05-14T10:06:56;1029.3;;;28.9;22.3
61880;BME280;47817;52.798;27.544;2023-05-14T10:11:32;1029.3;;;28.9;22.2
61880;BME280;47817;52.798;27.544;2023-05-14T10:16:52;1029.3;;;29;22.1
61880;BME280;47817;52.798;27.544;2023-05-14T10:21:40;1029.2;;;29.3;21.6
61880;BME280;47817;52.798;27.544;2023-05-14T10:26:46;1029.2;;;29.3;21.5
61880;BME280;47817;52.798;27.544;2023-05-14T10:32:02;1029.1;;;29.4;21.8
61880;BME280;47817;52.798;27.544;2023-05-14T10:37:10;1029.1;;;29.7;21.5
61880;BME280;47817;52.798;27.544;2023-05-14T10:41:46;1029.1;;;29.6;21.3
61880;BME280;47817;52.798;27.544;2023-05-14T10:47:10;1029;;;29.8;21
61880;BME280;47817;52.798;27.544;2023-05-14T10:52:10;1029;;;29.8;21.4
61880;BME280;47817;52.798;27.544;2023-05-14T10:56:57;1028.9;;;30;21.4
61880;BME280;47817;52.798;27.544;2023-05-14T11:01:44;1028.8;;;30.3;21.2
61880;BME280;47817;52.798;27.544;2023-05-14T11:06:20;1028.8;;;30;20.8
61880;BME280;47817;52.798;27.544;2023-05-14T11:12:10;1028.8;;;29.9;21.1
61880;BME280;47817;52.798;27.544;2023-05-14T11:17:10;1028.7;;;30.4;21.2
61880;BME280;47817;52.798;27.544;2023-05-14T11:21:20;1028.7;;;30.6;21
61880;BME280;47817;52.798;27.544;2023-05-14T11:27:10;1028.6;;;30.7;20.8
61880;BME280;47817;52.798;27.544;2023-05-14T11:32:10;1028.6;;;30.7;20.5
61880;BME280;47817;52.798;27.544;2023-05-14T11:36:28;1028.5;;;30.9;20.3
61880;BME280;47817;52.798;27.544;2023-05-14T11:41:46;1028.5;;;31.2;20.1
61880;BME280;47817;52.798;27.544;2023-05-14T11:46:52;1028.4;;;31.4;19.7
61880;BME280;47817;52.798;27.544;2023-05-14T11:51:32;1028.3;;;31;19.6
61880;BME280;47817;52.798;27.544;2023-05-14T11:56:48;1028.3;;;30.8;19.7
61880;BME280;47817;52.798;27.544;2023-05-14T12:01:56;1028.2;;;31.1;19.4
61880;BME280;47817;52.798;27.544;2023-05-14T12:06:42;1028.1;;;31.4;19.4
61880;BME280;47817;52.798;27.544;2023-05-14T12:11:46;1028.1;;;31.5;19
61880;BME280;47817;52.798;27.544;2023-05-14T12:16:56;1028.1;;;31.6;18.6
61880;BME280;47817;52.798;27.544;2023-05-14T12:22:10;1028;;;31.9;18.6
61880;BME280;47817;52.798;27.544;2023-05-14T12:26:54;1028;;;32;18.6
61880;BME280;47817;52.798;27.544;2023-05-14T12:32:10;1028;;;32.3;18.4
61880;BME280;47817;52.798;27.544;2023-05-14T12:36:46;1027.9;;;32.6;18.2
61880;BME280;47817;52.798;27.544;2023-05-14T12:42:00;1027.8;;;33;17.9
61880;BME280;47817;52.798;27.544;2023-05-14T12:46:32;1027.8;;;34.7;16.7
61880;BME280;47817;52.798;27.544;2023-05-14T12:51:48;1027.7;;;36.3;15.2
61880;BME280;47817;52.798;27.544;2023-05-14T12:56:20;1027.6;;;38;14.2
61880;BME280;47817;52.798;27.544;2023-05-14T13:01:32;1027.5;;;39.7;13.4
61880;BME280;47817;52.798;27.544;2023-05-14T13:07:10;1027.4;;;41.1;12.4
61880;BME280;47817;52.798;27.544;2023-05-14T13:11:40;1027.4;;;42.5;12.1
61880;BME280;47817;52.798;27.544;2023-05-14T13:16:30;1027.3;;;43.4;11.8
61880;BME280;47817;52.798;27.544;2023-05-14T13:22:10;1027.3;;;43.8;11.2
61880;BME280;47817;52.798;27.544;2023-05-14T13:26:40;1027.3;;;44.7;11
61880;BME280;47817;52.798;27.544;2023-05-14T13:31:32;1027.2;;;45.7;10.2
61880;BME280;47817;52.798;27.544;2023-05-14T13:37:00;1027.2;;;46.4;9.8
61880;BME280;47817;52.798;27.544;2023-05-14T13:41:40;1027.1;;;46.6;9.5
61880;BME280;47817;52.798;27.544;2023-05-14T13:46:46;1027;;;47.3;9
61880;BME280;47817;52.798;27.544;2023-05-14T13:52:10;1027;;;47.8;8.7
61880;BME280;47817;52.798;27.544;2023-05-14T13:57:08;1027;;;48;8.7
61880;BME280;47817;52.798;27.544;2023-05-14T14:01:56;1027;;;47.7;8.4
61880;BME280;47817;52.798;27.544;2023-05-14T14:06:30;1027;;;48.1;8.2
61880;BME280;47817;52.798;27.544;2023-05-14T14:11:30;1027;;;48.7;7.9
61880;BME280;47817;52.798;27.544;2023-05-14T14:17:00;1026.9;;;48.2;7.8
61880;BME280;47817;52.798;27.544;2023-05-14T14:21:54;1026.8;;;48.6;7.6
61880;BME280;47817;52.798;27.544;2023-05-14T14:26:20;1026.8;;;49;7.5
61880;BME280;47817;52.798;27.544;2023-05-14T14:32:08;1026.7;;;48.9;7.5
61880;BME280;47817;52.798;27.544;2023-05-14T14:37:08;1026.6;;;49.4;7.3
61880;BME280;47817;52.798;27.544;2023-05-14T14:41:30;1026.6;;;49.4;7.2
61880;BME280;47817;52.798;27.544;2023-05-14T14:46:44;1026.6;;;49;7.3
61880;BME280;47817;52.798;27.544;2023-05-14T14:51:38;1026.7;;;44.5;8.6
61880;BME280;47817;52.798;27.544;2023-05-14T14:56:20;1026.6;;;44.5;8.6
61880;BME280;47817;52.798;27.544;2023-05-14T15:01:42;1026.5;;;46.9;7.8
61880;BME280;47817;52.798;27.544;2023-05-14T15:06:54;1026.5;;;47.7;7.3
61880;BME280;47817;52.798;27.544;2023-05-14T15:11:20;1026.4;;;48;7.2
61880;BME280;47817;52.798;27.544;2023-05-14T15:17:08;1026.4;;;48.8;7.1
61880;BME280;47817;52.798;27.544;2023-05-14T15:21:38;1026.3;;;49.2;6.9
61880;BME280;47817;52.798;27.544;2023-05-14T15:27:08;1026.2;;;49.8;6.7
61880;BME280;47817;52.798;27.544;2023-05-14T15:31:52;1026.2;;;49.9;6.6
61880;BME280;47817;52.798;27.544;2023-05-14T15:37:08;1026.1;;;49.8;6.6
61880;BME280;47817;52.798;27.544;2023-05-14T15:41:20;1026.1;;;49.5;6.5
61880;BME280;47817;52.798;27.544;2023-05-14T15:47:00;1026;;;49.3;6.4
61880;BME280;47817;52.798;27.544;2023-05-14T15:51:32;1026;;;49.3;6.4
61880;BME280;47817;52.798;27.544;2023-05-14T15:56:32;1025.9;;;49.2;6.4
61880;BME280;47817;52.798;27.544;2023-05-14T16:01:20;1025.8;;;48.8;6.5
61880;BME280;47817;52.798;27.544;2023-05-14T16:06:32;1025.8;;;48.7;6.6
61880;BME280;47817;52.798;27.544;2023-05-14T16:12:08;1025.8;;;48.5;6.7
61880;BME280;47817;52.798;27.544;2023-05-14T16:16:40;1025.8;;;48;6.8
61880;BME280;47817;52.798;27.544;2023-05-14T16:21:34;1025.8;;;47.7;7
61880;BME280;47817;52.798;27.544;2023-05-14T16:27:10;1025.7;;;47.5;7.1
61880;BME280;47817;52.798;27.544;2023-05-14T16:31:40;1025.7;;;47.1;7.3
61880;BME280;47817;52.798;27.544;2023-05-14T16:36:32;1025.8;;;46.7;7.6
61880;BME280;47817;52.798;27.544;2023-05-14T16:42:00;1025.7;;;46.1;7.9
61880;BME280;47817;52.798;27.544;2023-05-14T16:47:10;1025.7;;;45.4;8.2
61880;BME280;47817;52.798;27.544;2023-05-14T16:51:20;1025.8;;;44.5;8.7
61880;BME280;47817;52.798;27.544;2023-05-14T16:56:36;1025.8;;;43.7;9.1
61880;BME280;47817;52.798;27.544;2023-05-14T17:02:08;1025.8;;;42.9;9.7
61880;BME280;47817;52.798;27.544;2023-05-14T17:07:08;1025.8;;;41.7;10.3
61880;BME280;47817;52.798;27.544;2023-05-14T17:11:32;1025.8;;;40.6;10.9
61880;BME280;47817;52.798;27.544;2023-05-14T17:16:40;1025.8;;;39.6;11.5
61880;BME280;47817;52.798;27.544;2023-05-14T17:22:08;1025.8;;;38.6;11.8
61880;BME280;47817;52.798;27.544;2023-05-14T17:26:44;1025.9;;;37.2;12.7
61880;BME280;47817;52.798;27.544;2023-05-14T17:31:34;1025.9;;;36;13.4
61880;BME280;47817;52.798;27.544;2023-05-14T17:36:34;1026;;;34.8;14
61880;BME280;47817;52.798;27.544;2023-05-14T17:42:00;1026;;;33.2;14.8
61880;BME280;47817;52.798;27.544;2023-05-14T17:46:32;1026.1;;;31.1;16.1
61880;BME280;47817;52.798;27.544;2023-05-14T17:51:46;1026.1;;;29.6;17.1
61880;BME280;47817;52.798;27.544;2023-05-14T17:56:56;1026.1;;;28.7;17.8
61880;BME280;47817;52.798;27.544;2023-05-14T18:01:32;1026.2;;;27.7;19.3
61880;BME280;47817;52.798;27.544;2023-05-14T18:07:10;1026.2;;;26.8;20.8
61880;BME280;47817;52.798;27.544;2023-05-14T18:11:56;1026.2;;;26.1;21.6
61880;BME280;47817;52.798;27.544;2023-05-14T18:16:20;1026.3;;;25.6;22.3
61880;BME280;47817;52.798;27.544;2023-05-14T18:21:54;1026.3;;;25.2;23.1
61880;BME280;47817;52.798;27.544;2023-05-14T18:26:38;1026.3;;;24.8;23.7
61880;BME280;47817;52.798;27.544;2023-05-14T18:31:46;1026.3;;;24.5;24.6
61880;BME280;47817;52.798;27.544;2023-05-14T18:37:00;1026.3;;;24.1;26.2
61880;BME280;47817;52.798;27.544;2023-05-14T18:42:10;1026.3;;;23.8;27
61880;BME280;47817;52.798;27.544;2023-05-14T18:46:34;1026.3;;;23.5;28
61880;BME280;47817;52.798;27.544;2023-05-14T18:52:10;1026.3;;;23.3;28.8
61880;BME280;47817;52.798;27.544;2023-05-14T18:57:10;1026.4;;;23.1;29.2
61880;BME280;47817;52.798;27.544;2023-05-14T19:01:56;1026.3;;;22.9;29.1
61880;BME280;47817;52.798;27.544;2023-05-14T19:06:30;1026.3;;;22.7;30.1
61880;BME280;47817;52.798;27.544;2023-05-14T19:11:32;1026.4;;;22.6;30.6
61880;BME280;47817;52.798;27.544;2023-05-14T19:17:00;1026.4;;;22.4;30.4
61880;BME280;47817;52.798;27.544;2023-05-14T19:21:54;1026.4;;;22.3;30.5
61880;BME280;47817;52.798;27.544;2023-05-14T19:26:32;1026.4;;;22.2;30.5
61880;BME280;47817;52.798;27.544;2023-05-14T19:32:08;1026.3;;;22.1;30.7
61880;BME280;47817;52.798;27.544;2023-05-14T19:37:08;1026.4;;;22;30.8
61880;BME280;47817;52.798;27.544;2023-05-14T19:41:20;1026.4;;;21.9;30.8
61880;BME280;47817;52.798;27.544;2023-05-14T19:46:46;1026.4;;;21.8;30.9
61880;BME280;47817;52.798;27.544;2023-05-14T19:51:52;1026.4;;;21.7;31.4
61880;BME280;47817;52.798;27.544;2023-05-14T19:56:32;1026.4;;;21.5;31.7
61880;BME280;47817;52.798;27.544;2023-05-14T20:01:44;1026.4;;;21.5;32
61880;BME280;47817;52.798;27.544;2023-05-14T20:06:56;1026.4;;;21.5;31.5
61880;BME280;47817;52.798;27.544;2023-05-14T20:11:32;1026.4;;;21.4;32
61880;BME280;47817;52.798;27.544;2023-05-14T20:17:10;1026.3;;;21.2;33.5
61880;BME280;47817;52.798;27.544;2023-05-14T20:21:40;1026.3;;;21.1;34.1
61880;BME280;47817;52.798;27.544;2023-05-14T20:27:10;1026.3;;;21;34.7
61880;BME280;47817;52.798;27.544;2023-05-14T20:31:22;1026.3;;;20.9;35.1
61880;BME280;47817;52.798;27.544;2023-05-14T20:37:10;1026.3;;;20.9;35.4
61880;BME280;47817;52.798;27.544;2023-05-14T20:41:44;1026.3;;;20.8;35.4
61880;BME280;47817;52.798;27.544;2023-05-14T20:46:58;1026.3;;;20.8;35
61880;BME280;47817;52.798;27.544;2023-05-14T20:51:20;1026.3;;;20.8;34.8
61880;BME280;47817;52.798;27.544;2023-05-14T20:56:54;1026.3;;;20.9;34.8
61880;BME280;47817;52.798;27.544;2023-05-14T21:01:30;1026.3;;;20.8;35
61880;BME280;47817;52.798;27.544;2023-05-14T21:06:32;1026.3;;;20.6;35.1
61880;BME280;47817;52.798;27.544;2023-05-14T21:12:08;1026.2;;;20.4;35.9
61880;BME280;47817;52.798;27.544;2023-05-14T21:16:20;1026.2;;;20.4;35.8
61880;BME280;47817;52.798;27.544;2023-05-14T21:21:34;1026.2;;;20.4;35.6
61880;BME280;47817;52.798;27.544;2023-05-14T21:27:08;1026.3;;;20.4;35.6
61880;BME280;47817;52.798;27.544;2023-05-14T21:31:40;1026.3;;;20.3;35.3
61880;BME280;47817;52.798;27.544;2023-05-14T21:36:40;1026.2;;;20.3;35.2
61880;BME280;47817;52.798;27.544;2023-05-14T21:42:00;1026.2;;;20.3;35.2
61880;BME280;47817;52.798;27.544;2023-05-14T21:47:10;1026.2;;;20.2;35.7
61880;BME280;47817;52.798;27.544;2023-05-14T21:51:28;1026.1;;;20.1;36.2
61880;BME280;47817;52.798;27.544;2023-05-14T21:56:33;1026.1;;;20.1;36.7
61880;BME280;47817;52.798;27.544;2023-05-14T22:02:08;1026.1;;;20;37
61880;BME280;47817;52.798;27.544;2023-05-14T22:07:10;1026.1;;;19.9;37.3
61880;BME280;47817;52.798;27.544;2023-05-14T22:11:42;1026.1;;;19.9;36.9
61880;BME280;47817;52.798;27.544;2023-05-14T22:16:32;1026.1;;;19.7;37
61880;BME280;47817;52.798;27.544;2023-05-14T22:21:58;1026.1;;;19.5;37.5
61880;BME280;47817;52.798;27.544;2023-05-14T22:26:44;1026;;;19.4;37.9
61880;BME280;47817;52.798;27.544;2023-05-14T22:31:32;1026;;;19.3;38
61880;BME280;47817;52.798;27.544;2023-05-14T22:37:10;1026;;;19.2;38.3
61880;BME280;47817;52.798;27.544;2023-05-14T22:42:08;1026;;;19.1;38
61880;BME280;47817;52.798;27.544;2023-05-14T22:46:20;1026;;;19.1;37.8
61880;BME280;47817;52.798;27.544;2023-05-14T22:51:46;1025.9;;;19.1;37.8
61880;BME280;47817;52.798;27.544;2023-05-14T22:57:08;1025.9;;;19;37.8
61880;BME280;47817;52.798;27.544;2023-05-14T23:01:20;1025.9;;;18.9;37.8
61880;BME280;47817;52.798;27.544;2023-05-14T23:06:20;1025.9;;;18.8;37.9
61880;BME280;47817;52.798;27.544;2023-05-14T23:12:10;1025.9;;;18.7;38.4
61880;BME280;47817;52.798;27.544;2023-05-14T23:16:32;1025.8;;;18.6;38.4
61880;BME280;47817;52.798;27.544;2023-05-14T23:22:10;1025.8;;;18.5;38.4
61880;BME280;47817;52.798;27.544;2023-05-14T23:26:38;1025.8;;;18.5;38.1
61880;BME280;47817;52.798;27.544;2023-05-14T23:32:10;1025.8;;;18.5;37.8
61880;BME280;47817;52.798;27.544;2023-05-14T23:36:54;1025.8;;;18.5;37.7
61880;BME280;47817;52.798;27.544;2023-05-14T23:42:10;1025.8;;;18.5;37.6
61880;BME280;47817;52.798;27.544;2023-05-14T23:46:46;1025.7;;;18.4;37.7
61880;BME280;47817;52.798;27.544;2023-05-14T23:52:00;1025.7;;;18.4;37.8
61880;BME280;47817;52.798;27.544;2023-05-14T23:56:20;1025.7;;;18.3;37.8
